Time;durP1;ratioP1;P1;durP2;ratioP2;P2;SDS_P1;SDS_P2;PMS_P1;PMS_P2;Temp;Humidity;BMP_temperature;BMP_pressure;BME280_temperature;BME280_humidity;BME280_pressure;Samples;Min_cycle;Max_cycle;Signal;HPM_P1;HPM_P2
2022/10/19 00:01:19;;;;;;;9.55;4.65;;;16.00;99.90;;;;;;5221782;28;20035;-75
2022/10/19 00:03:55;;;;;;;7.13;5.32;;;15.90;99.90;;;;;;5202908;28;20032;-76
2022/10/19 00:06:30;;;;;;;11.77;5.53;;;15.90;99.90;;;;;;5208336;28;20048;-75
2022/10/19 00:09:11;;;;;;;8.20;5.38;;;15.90;99.90;;;;;;5215567;28;20033;-75
2022/10/19 00:11:47;;;;;;;8.90;5.07;;;15.90;99.90;;;;;;5200510;28;20021;-74
2022/10/19 00:14:24;;;;;;;10.43;5.45;;;15.80;99.90;;;;;;5187074;28;20035;-75
2022/10/19 00:16:58;;;;;;;8.18;5.63;;;15.70;99.90;;;;;;5203067;28;20028;-75
2022/10/19 00:19:31;;;;;;;8.45;5.28;;;15.70;99.90;;;;;;5212391;28;20047;-75
2022/10/19 00:22:05;;;;;;;8.20;5.90;;;15.80;99.90;;;;;;5207826;28;20031;-75
2022/10/19 00:24:37;;;;;;;8.18;5.68;;;15.80;99.90;;;;;;5204702;28;20021;-75
2022/10/19 00:27:10;;;;;;;9.13;5.88;;;15.80;99.90;;;;;;5220995;28;20033;-75
2022/10/19 00:29:41;;;;;;;7.97;6.00;;;15.80;99.90;;;;;;5220492;28;20351;-75
2022/10/19 00:32:15;;;;;;;7.55;5.28;;;15.80;99.90;;;;;;5201809;28;20337;-75
2022/10/19 00:34:47;;;;;;;9.38;6.10;;;15.80;99.90;;;;;;5184856;28;20900;-75
2022/10/19 00:37:18;;;;;;;8.35;5.30;;;15.80;99.90;;;;;;5218758;28;20177;-75
2022/10/19 00:39:58;;;;;;;11.10;6.18;;;15.70;99.90;;;;;;5219738;28;20324;-74
2022/10/19 00:42:31;;;;;;;8.57;5.38;;;15.80;99.90;;;;;;5219865;28;20190;-75
2022/10/19 00:45:13;;;;;;;9.98;5.55;;;15.70;99.90;;;;;;5219978;28;20048;-75
2022/10/19 00:47:45;;;;;;;9.02;5.63;;;15.70;99.90;;;;;;5217004;28;20028;-75
2022/10/19 00:50:20;;;;;;;9.77;6.28;;;15.70;99.90;;;;;;5210821;28;20024;-75
2022/10/19 00:52:51;;;;;;;9.10;6.07;;;15.60;99.90;;;;;;5185970;28;20040;-76
2022/10/19 00:55:23;;;;;;;9.43;5.82;;;15.60;99.90;;;;;;5185396;28;20338;-75
2022/10/19 00:57:55;;;;;;;9.43;5.97;;;15.50;99.90;;;;;;5238058;28;20039;-76
2022/10/19 01:00:30;;;;;;;8.27;5.78;;;15.50;99.90;;;;;;5241549;28;20020;-75
2022/10/19 01:03:05;;;;;;;7.95;5.45;;;15.50;99.90;;;;;;5203184;28;20055;-77
2022/10/19 01:05:38;;;;;;;9.85;5.40;;;15.40;99.90;;;;;;5188860;28;20045;-76
2022/10/19 01:08:15;;;;;;;8.88;5.85;;;15.40;99.90;;;;;;5217305;28;20059;-75
2022/10/19 01:10:52;;;;;;;9.25;5.90;;;15.30;99.90;;;;;;5216368;28;20055;-76
2022/10/19 01:14:13;;;;;;;9.40;5.38;;;15.20;99.90;;;;;;5240170;28;20345;-76
2022/10/19 01:16:50;;;;;;;7.25;5.55;;;15.10;99.90;;;;;;5192503;28;20051;-78
2022/10/19 01:19:52;;;;;;;9.57;5.82;;;15.00;99.90;;;;;;5215528;28;20241;-75
2022/10/19 01:22:38;;;;;;;8.40;5.90;;;14.90;99.90;;;;;;5219886;28;20013;-75
2022/10/19 01:25:32;;;;;;;10.27;5.97;;;14.90;99.90;;;;;;5220278;28;20024;-75
2022/10/19 01:28:19;;;;;;;8.18;5.65;;;14.80;99.90;;;;;;5201104;28;20108;-75
2022/10/19 01:31:09;;;;;;;7.78;5.22;;;14.90;99.90;;;;;;5210741;28;20043;-77
2022/10/19 01:33:56;;;;;;;9.18;5.28;;;14.90;99.90;;;;;;5219822;28;20062;-75
2022/10/19 01:37:09;;;;;;;6.03;4.80;;;14.90;99.90;;;;;;5202079;28;20033;-75
2022/10/19 01:40:06;;;;;;;7.65;5.43;;;15.00;99.90;;;;;;5204624;28;20041;-76
2022/10/19 01:43:09;;;;;;;6.20;4.88;;;15.00;99.90;;;;;;5202306;28;20029;-76
2022/10/19 01:45:53;;;;;;;8.02;5.35;;;15.00;99.90;;;;;;5213028;28;20097;-75
2022/10/19 01:48:34;;;;;;;8.13;5.15;;;15.00;99.90;;;;;;5215219;28;20029;-76
2022/10/19 01:51:15;;;;;;;9.05;5.25;;;15.00;99.90;;;;;;5219895;28;20275;-76
2022/10/19 01:53:51;;;;;;;6.70;4.68;;;15.00;99.90;;;;;;5221800;28;20047;-77
2022/10/19 01:56:26;;;;;;;10.93;5.57;;;15.00;99.90;;;;;;5222448;28;20235;-75
2022/10/19 01:59:01;;;;;;;9.60;4.63;;;15.00;99.90;;;;;;5205226;28;20033;-75
2022/10/19 02:01:42;;;;;;;7.15;5.03;;;15.00;99.90;;;;;;5222192;28;20632;-75
2022/10/19 02:04:17;;;;;;;6.80;4.55;;;15.00;99.90;;;;;;5215213;28;20444;-75
2022/10/19 02:06:51;;;;;;;9.48;5.05;;;15.00;99.90;;;;;;5222592;28;20221;-76
2022/10/19 02:09:27;;;;;;;7.20;5.00;;;15.00;99.90;;;;;;5205612;28;20033;-76
2022/10/19 02:12:05;;;;;;;6.00;4.55;;;15.00;99.90;;;;;;5205435;28;20251;-75
2022/10/19 02:14:45;;;;;;;5.50;3.90;;;15.00;99.90;;;;;;5215802;28;20204;-76
2022/10/19 02:17:31;;;;;;;5.65;4.38;;;15.00;99.90;;;;;;5216788;28;20039;-75
2022/10/19 02:20:03;;;;;;;6.97;4.63;;;14.90;99.90;;;;;;5206007;28;20128;-74
2022/10/19 02:22:35;;;;;;;6.70;4.72;;;14.90;99.90;;;;;;5223007;28;20379;-75
2022/10/19 02:25:08;;;;;;;5.80;4.22;;;14.80;99.90;;;;;;5223287;28;20340;-74
2022/10/19 02:27:41;;;;;;;4.88;4.07;;;14.80;99.90;;;;;;5205605;28;20242;-75
2022/10/19 02:30:23;;;;;;;8.18;4.47;;;14.70;99.90;;;;;;5223387;28;20443;-75
2022/10/19 02:33:00;;;;;;;6.05;4.28;;;14.70;99.90;;;;;;5205148;28;20187;-76
2022/10/19 02:35:31;;;;;;;5.70;4.15;;;14.70;99.90;;;;;;5205520;28;20440;-76
2022/10/19 02:38:05;;;;;;;5.57;3.63;;;14.70;99.90;;;;;;5205737;28;20379;-77
2022/10/19 02:40:50;;;;;;;4.72;3.55;;;14.70;99.90;;;;;;5203124;28;20039;-77
2022/10/19 02:43:26;;;;;;;4.75;3.90;;;14.70;99.90;;;;;;5221342;28;20021;-76
2022/10/19 02:46:07;;;;;;;7.70;3.85;;;14.70;99.90;;;;;;5181103;28;20221;-75
2022/10/19 02:48:39;;;;;;;6.72;4.30;;;14.70;99.90;;;;;;5221385;28;20029;-74
2022/10/19 02:51:29;;;;;;;4.28;3.80;;;14.60;99.90;;;;;;5216311;28;20050;-75
2022/10/19 02:54:05;;;;;;;4.53;3.65;;;14.50;99.90;;;;;;5223045;28;20039;-76
2022/10/19 02:56:42;;;;;;;5.18;3.40;;;14.40;99.90;;;;;;5222346;28;20031;-74
2022/10/19 02:59:15;;;;;;;5.88;4.13;;;14.20;99.90;;;;;;5218167;28;20025;-74
2022/10/19 03:01:49;;;;;;;5.85;3.55;;;14.10;99.90;;;;;;5203729;28;20033;-75
2022/10/19 03:04:20;;;;;;;4.90;3.70;;;14.00;99.90;;;;;;5216113;28;20028;-76
2022/10/19 03:06:53;;;;;;;5.28;3.75;;;14.00;99.90;;;;;;5205422;28;20349;-75
2022/10/19 03:09:25;;;;;;;5.00;3.30;;;14.00;99.90;;;;;;5221824;28;20029;-74
2022/10/19 03:11:58;;;;;;;5.25;4.07;;;13.90;99.90;;;;;;5198916;28;20029;-76
2022/10/19 03:14:31;;;;;;;5.20;3.80;;;13.80;99.90;;;;;;5197653;28;20082;-74
2022/10/19 03:17:05;;;;;;;5.97;3.40;;;13.80;99.90;;;;;;5200111;28;20055;-76
2022/10/19 03:19:37;;;;;;;4.43;3.58;;;13.70;99.90;;;;;;5222106;28;20047;-76
2022/10/19 03:22:11;;;;;;;3.92;2.90;;;13.70;99.90;;;;;;5222143;28;20033;-76
2022/10/19 03:24:42;;;;;;;4.93;3.92;;;13.60;99.90;;;;;;5203945;28;20035;-75
2022/10/19 03:27:16;;;;;;;3.90;3.10;;;13.60;99.90;;;;;;5202012;28;20221;-74
2022/10/19 03:29:47;;;;;;;6.60;3.65;;;13.60;99.90;;;;;;5221529;28;20043;-75
2022/10/19 03:32:21;;;;;;;5.25;3.47;;;13.60;99.90;;;;;;5221757;28;20201;-77
2022/10/19 03:34:55;;;;;;;5.85;3.50;;;13.60;99.90;;;;;;5201848;28;20060;-76
2022/10/19 03:37:26;;;;;;;6.75;4.13;;;13.60;99.90;;;;;;5221472;28;20318;-75
2022/10/19 03:39:59;;;;;;;5.97;3.40;;;13.60;99.90;;;;;;5219565;28;20040;-76
2022/10/19 03:42:40;;;;;;;4.78;3.10;;;13.60;99.90;;;;;;5201937;28;20453;-76
2022/10/19 03:45:11;;;;;;;4.82;3.00;;;13.60;99.90;;;;;;5201682;28;20020;-77
2022/10/19 03:47:47;;;;;;;5.55;3.30;;;13.60;99.90;;;;;;5199053;28;20036;-76
2022/10/19 03:50:20;;;;;;;5.78;3.80;;;13.60;99.90;;;;;;5217422;28;20017;-76
2022/10/19 03:52:51;;;;;;;4.10;3.35;;;13.50;99.90;;;;;;5221480;28;20037;-76
2022/10/19 03:55:27;;;;;;;4.70;3.53;;;13.50;99.90;;;;;;5220169;28;20044;-76
2022/10/19 03:57:59;;;;;;;6.15;3.90;;;13.50;99.90;;;;;;5204021;28;20214;-76
2022/10/19 04:00:30;;;;;;;5.28;3.80;;;13.40;99.90;;;;;;5203605;28;20032;-76
2022/10/19 04:03:01;;;;;;;5.15;3.80;;;13.40;99.90;;;;;;5184114;28;20299;-76
2022/10/19 04:05:33;;;;;;;5.20;3.90;;;13.40;99.90;;;;;;5207438;28;20211;-75
2022/10/19 04:08:10;;;;;;;6.25;4.05;;;13.40;99.90;;;;;;5201132;28;20221;-76
2022/10/19 04:10:47;;;;;;;5.70;3.75;;;13.30;99.90;;;;;;5219661;28;20482;-77
2022/10/19 04:13:18;;;;;;;7.60;4.10;;;13.30;99.90;;;;;;5221437;28;20037;-76
2022/10/19 04:15:52;;;;;;;6.22;4.38;;;13.30;99.90;;;;;;5220303;28;20158;-76
2022/10/19 04:18:23;;;;;;;6.90;4.30;;;13.20;99.90;;;;;;5202906;28;20032;-77
2022/10/19 04:20:56;;;;;;;5.78;3.90;;;13.20;99.90;;;;;;5219004;28;20048;-77
2022/10/19 04:23:37;;;;;;;4.97;3.80;;;13.20;99.90;;;;;;5185620;28;20047;-77
2022/10/19 04:26:11;;;;;;;5.15;4.20;;;13.10;99.90;;;;;;5203550;28;20031;-76
2022/10/19 04:28:45;;;;;;;;;;;13.10;99.90;;;;;;5203502;28;20235;-76
2022/10/19 04:31:19;;;;;;;5.80;4.13;;;13.00;99.90;;;;;;5240921;28;19931;-75
2022/10/19 04:33:50;;;;;;;4.15;3.67;;;13.00;99.90;;;;;;5206126;28;20033;-75
2022/10/19 04:36:22;;;;;;;6.60;4.20;;;12.90;99.90;;;;;;5200545;28;20354;-75
2022/10/19 04:38:54;;;;;;;4.72;3.83;;;12.80;99.90;;;;;;5182856;28;20294;-75
2022/10/19 04:41:25;;;;;;;5.03;3.90;;;12.80;99.90;;;;;;5206500;28;20031;-75
2022/10/19 04:43:58;;;;;;;5.95;4.25;;;12.80;99.90;;;;;;5207385;28;20024;-74
2022/10/19 04:46:30;;;;;;;10.40;4.10;;;12.70;99.90;;;;;;5211897;28;20063;-77
2022/10/19 04:49:05;;;;;;;5.32;3.78;;;12.70;99.90;;;;;;5218315;28;20036;-75
2022/10/19 04:51:36;;;;;;;4.95;3.80;;;12.70;99.90;;;;;;5204620;28;20041;-75
2022/10/19 04:54:08;;;;;;;8.00;4.00;;;12.70;99.90;;;;;;5185245;28;20424;-75
2022/10/19 04:56:44;;;;;;;6.30;4.28;;;12.80;99.90;;;;;;5217247;28;20040;-75
2022/10/19 04:59:15;;;;;;;5.97;3.95;;;12.80;99.90;;;;;;5202896;28;20027;-74
2022/10/19 05:01:47;;;;;;;6.10;4.40;;;12.80;99.90;;;;;;5219162;28;20041;-75
2022/10/19 05:04:18;;;;;;;5.53;4.07;;;12.70;99.90;;;;;;5208531;28;20245;-75
2022/10/19 05:06:49;;;;;;;6.57;4.38;;;12.80;99.90;;;;;;5219125;28;20029;-75
2022/10/19 05:09:23;;;;;;;5.07;3.75;;;12.80;99.90;;;;;;5195619;28;20041;-76
2022/10/19 05:11:54;;;;;;;7.73;4.20;;;12.70;99.90;;;;;;5210800;28;20064;-75
2022/10/19 05:14:25;;;;;;;5.82;4.00;;;12.70;99.90;;;;;;5213032;28;20024;-76
2022/10/19 05:16:56;;;;;;;6.22;3.80;;;12.70;99.90;;;;;;5219749;28;20035;-75
2022/10/19 05:19:29;;;;;;;8.75;3.95;;;12.70;99.90;;;;;;5219549;28;20027;-74
2022/10/19 05:22:01;;;;;;;4.85;3.78;;;12.70;99.90;;;;;;5219424;28;20029;-75
2022/10/19 05:24:34;;;;;;;7.05;4.18;;;12.70;99.90;;;;;;5200631;28;20025;-75
2022/10/19 05:27:06;;;;;;;4.65;3.90;;;12.70;99.90;;;;;;5199148;28;20225;-75
2022/10/19 05:29:37;;;;;;;5.03;3.67;;;12.70;99.90;;;;;;5202142;28;20039;-75
2022/10/19 05:32:13;;;;;;;5.50;4.00;;;12.70;99.90;;;;;;5219713;28;20025;-74
2022/10/19 05:34:44;;;;;;;5.93;3.53;;;12.70;99.90;;;;;;5196179;28;20260;-74
2022/10/19 05:37:16;;;;;;;5.13;3.47;;;12.80;99.90;;;;;;5223799;28;20021;-75
2022/10/19 05:39:47;;;;;;;6.40;3.97;;;12.90;99.90;;;;;;5201666;28;20033;-77
2022/10/19 05:42:20;;;;;;;4.30;3.25;;;13.00;99.90;;;;;;5184585;28;20270;-74
2022/10/19 05:44:52;;;;;;;5.15;3.75;;;13.10;99.90;;;;;;5217876;28;20032;-75
2022/10/19 05:47:23;;;;;;;4.88;3.58;;;13.20;99.90;;;;;;5200619;28;20207;-75
2022/10/19 05:49:54;;;;;;;6.18;3.50;;;13.30;99.90;;;;;;5219536;28;20033;-75
2022/10/19 05:52:25;;;;;;;6.78;3.35;;;13.30;99.90;;;;;;5219506;28;20029;-75
2022/10/19 05:55:02;;;;;;;4.47;3.95;;;13.30;99.90;;;;;;5218973;28;20029;-76
2022/10/19 05:57:33;;;;;;;4.80;3.80;;;13.40;99.90;;;;;;5219445;28;20033;-76
2022/10/19 06:00:04;;;;;;;4.82;3.42;;;13.40;99.90;;;;;;5200224;28;20040;-76
2022/10/19 06:02:36;;;;;;;3.55;3.08;;;13.40;99.90;;;;;;5216789;28;20041;-76
2022/10/19 06:05:11;;;;;;;3.85;3.22;;;13.40;99.90;;;;;;5190971;28;20584;-76
2022/10/19 06:07:44;;;;;;;4.63;3.72;;;13.50;99.90;;;;;;5223795;28;20037;-75
2022/10/19 06:10:16;;;;;;;4.88;3.38;;;13.60;99.90;;;;;;5200255;28;20017;-76
2022/10/19 06:12:47;;;;;;;6.50;3.80;;;13.70;99.90;;;;;;5201144;28;20064;-75
2022/10/19 06:15:20;;;;;;;4.55;3.47;;;13.80;99.90;;;;;;5199302;28;20051;-75
2022/10/19 06:17:54;;;;;;;4.60;3.65;;;13.70;99.90;;;;;;5217680;28;20214;-75
2022/10/19 06:20:28;;;;;;;5.32;3.63;;;13.80;99.90;;;;;;5220185;28;20036;-76
2022/10/19 06:22:59;;;;;;;5.95;3.33;;;13.80;99.90;;;;;;5202912;28;20032;-76
2022/10/19 06:25:35;;;;;;;5.20;3.53;;;13.90;99.90;;;;;;5215411;28;20040;-75
2022/10/19 06:28:06;;;;;;;14.35;4.32;;;13.80;99.90;;;;;;5208705;28;20488;-75
2022/10/19 06:30:39;;;;;;;4.70;3.30;;;13.80;99.90;;;;;;5235241;28;20372;-75
2022/10/19 06:33:13;;;;;;;4.50;3.35;;;13.70;99.90;;;;;;5219065;28;20033;-76
2022/10/19 06:35:44;;;;;;;5.20;3.67;;;13.70;99.90;;;;;;5193204;28;20060;-75
2022/10/19 06:38:18;;;;;;;5.20;3.38;;;13.70;99.90;;;;;;5220565;28;20025;-75
2022/10/19 06:40:51;;;;;;;4.40;3.43;;;13.70;99.90;;;;;;5202715;28;20581;-74
2022/10/19 06:43:22;;;;;;;8.20;3.70;;;13.60;99.90;;;;;;5186185;28;20369;-76
2022/10/19 06:45:56;;;;;;;5.82;4.03;;;13.60;99.90;;;;;;5186265;28;20025;-74
2022/10/19 06:48:27;;;;;;;14.45;4.90;;;13.70;99.90;;;;;;5219187;28;20060;-75
2022/10/19 06:51:06;;;;;;;7.00;3.50;;;13.80;99.90;;;;;;5206758;28;20037;-74
2022/10/19 06:53:37;;;;;;;4.25;3.35;;;13.90;99.90;;;;;;5202610;28;20448;-75
2022/10/19 06:56:13;;;;;;;4.75;3.33;;;14.00;99.90;;;;;;5230552;28;20350;-75
2022/10/19 06:58:45;;;;;;;5.60;3.42;;;14.10;99.90;;;;;;5228096;28;20044;-74
2022/10/19 07:01:17;;;;;;;4.18;3.00;;;14.20;99.90;;;;;;5223336;28;20027;-74
2022/10/19 07:03:52;;;;;;;3.83;3.47;;;14.30;99.90;;;;;;5202666;28;20032;-74
2022/10/19 07:06:28;;;;;;;5.00;3.40;;;14.40;99.90;;;;;;5190074;28;20384;-74
2022/10/19 07:08:59;;;;;;;5.47;3.80;;;14.40;99.90;;;;;;5191558;28;20037;-75
2022/10/19 07:11:31;;;;;;;7.18;3.22;;;14.50;99.90;;;;;;5206250;28;20037;-74
2022/10/19 07:14:04;;;;;;;8.18;4.35;;;14.70;99.90;;;;;;5193396;28;20037;-75
2022/10/19 07:16:40;;;;;;;4.22;3.55;;;14.70;99.90;;;;;;5217932;28;20072;-76
2022/10/19 07:19:12;;;;;;;3.80;3.38;;;14.70;99.90;;;;;;5221242;28;20043;-74
2022/10/19 07:21:44;;;;;;;3.75;3.38;;;14.80;99.90;;;;;;5204312;28;20376;-74
2022/10/19 07:24:15;;;;;;;5.03;4.13;;;14.80;99.90;;;;;;5222239;28;20062;-74
2022/10/19 07:26:49;;;;;;;8.43;3.53;;;14.80;99.90;;;;;;5203762;28;20056;-74
2022/10/19 07:29:25;;;;;;;10.50;3.60;;;14.90;99.90;;;;;;5225895;28;20051;-74
2022/10/19 07:31:56;;;;;;;4.63;3.50;;;14.90;99.90;;;;;;5217340;28;20058;-74
2022/10/19 07:34:30;;;;;;;4.13;3.30;;;15.10;99.90;;;;;;5188241;28;20215;-74
2022/10/19 07:37:01;;;;;;;3.72;3.13;;;15.10;99.90;;;;;;5204803;28;20041;-74
2022/10/19 07:39:33;;;;;;;6.82;3.88;;;15.00;99.90;;;;;;5203544;28;20032;-75
2022/10/19 07:42:04;;;;;;;6.28;3.75;;;15.00;99.90;;;;;;5226956;28;20066;-74
2022/10/19 07:44:38;;;;;;;3.95;3.17;;;15.10;99.90;;;;;;5221496;28;20024;-74
2022/10/19 07:47:13;;;;;;;5.07;3.00;;;15.20;99.90;;;;;;5221659;28;20399;-73
2022/10/19 07:52:35;;;;;;;4.75;2.90;;;15.70;99.90;;;;;;5224414;28;20040;-72
2022/10/19 07:55:09;;;;;;;35.43;5.97;;;15.90;99.90;;;;;;5219478;28;20025;-73
2022/10/19 07:57:40;;;;;;;3.08;2.40;;;16.10;99.90;;;;;;5204097;28;20211;-74
2022/10/19 08:00:16;;;;;;;2.95;2.47;;;16.30;99.90;;;;;;5217645;28;20021;-76
2022/10/19 08:02:48;;;;;;;2.83;2.53;;;16.40;99.90;;;;;;5222691;28;20033;-78
2022/10/19 08:05:21;;;;;;;7.72;2.70;;;16.30;99.90;;;;;;5207315;28;20376;-77
2022/10/19 08:07:52;;;;;;;2.97;2.60;;;16.20;99.90;;;;;;5232081;28;20025;-75
2022/10/19 08:10:24;;;;;;;2.90;2.38;;;16.00;99.90;;;;;;5223629;28;20037;-78
2022/10/19 08:12:55;;;;;;;3.72;2.40;;;15.80;99.90;;;;;;5206197;28;20029;-77
2022/10/19 08:15:29;;;;;;;4.00;2.58;;;15.80;99.90;;;;;;5224675;28;20360;-76
2022/10/19 08:18:00;;;;;;;2.83;2.42;;;15.90;99.90;;;;;;5230692;28;20036;-77
2022/10/19 08:20:31;;;;;;;2.67;2.05;;;16.10;99.90;;;;;;5221512;28;20149;-77
2022/10/19 08:23:02;;;;;;;2.17;1.98;;;16.40;99.90;;;;;;5212827;28;20036;-76
2022/10/19 08:25:37;;;;;;;2.53;2.15;;;16.30;99.90;;;;;;5219527;28;20051;-77
2022/10/19 08:28:08;;;;;;;2.67;2.20;;;16.20;99.90;;;;;;5215455;28;20035;-78
2022/10/19 08:30:39;;;;;;;2.53;2.33;;;16.30;99.90;;;;;;5217511;28;20037;-78
2022/10/19 08:33:16;;;;;;;2.15;1.80;;;16.10;99.90;;;;;;5233428;28;20020;-78
2022/10/19 08:35:52;;;;;;;2.45;2.03;;;16.10;99.90;;;;;;5217555;28;20059;-78
2022/10/19 08:38:23;;;;;;;2.83;2.05;;;16.10;99.90;;;;;;5200367;28;20243;-77
2022/10/19 08:41:03;;;;;;;3.88;2.40;;;16.40;99.90;;;;;;5218004;28;20219;-76
2022/10/19 08:43:40;;;;;;;2.10;1.90;;;16.90;99.90;;;;;;5219654;28;20021;-78
2022/10/19 08:46:32;;;;;;;4.05;1.98;;;17.50;99.90;;;;;;5201598;28;20033;-79
2022/10/19 08:49:12;;;;;;;2.15;1.95;;;17.40;99.90;;;;;;5213992;28;20028;-77
2022/10/19 08:51:52;;;;;;;2.30;2.10;;;17.10;99.90;;;;;;5195847;28;20037;-77
2022/10/19 08:54:40;;;;;;;2.92;2.03;;;16.80;99.90;;;;;;5186220;28;20067;-77
2022/10/19 08:57:49;;;;;;;4.53;1.63;;;16.70;99.90;;;;;;5220038;28;20213;-77
2022/10/19 09:00:54;;;;;;;3.03;2.17;;;16.90;99.90;;;;;;5211539;28;20254;-77
2022/10/19 09:03:40;;;;;;;1.90;1.70;;;17.50;99.90;;;;;;5219797;28;20338;-77
2022/10/19 09:06:44;;;;;;;2.10;1.90;;;17.40;99.90;;;;;;5208495;28;20509;-77
2022/10/19 09:09:18;;;;;;;2.05;1.85;;;17.30;99.90;;;;;;5202177;28;20049;-77
2022/10/19 09:11:55;;;;;;;2.25;2.05;;;17.60;99.90;;;;;;5219566;28;20327;-77
2022/10/19 09:14:35;;;;;;;1.75;1.52;;;17.90;99.90;;;;;;5202404;28;20029;-76
2022/10/19 09:17:15;;;;;;;1.65;1.40;;;18.30;99.90;;;;;;5202381;28;20029;-76
2022/10/19 09:19:50;;;;;;;1.58;1.35;;;18.20;99.90;;;;;;5197665;28;20037;-76
2022/10/19 09:22:33;;;;;;;1.80;1.70;;;17.80;99.90;;;;;;5196791;28;20036;-78
2022/10/19 09:25:13;;;;;;;2.53;1.48;;;17.90;99.90;;;;;;5191281;28;20047;-78
2022/10/19 09:27:47;;;;;;;2.58;1.90;;;17.40;99.90;;;;;;5210976;28;20033;-77
2022/10/19 09:30:21;;;;;;;2.05;1.73;;;17.20;99.90;;;;;;5197940;28;20045;-79
2022/10/19 09:32:59;;;;;;;2.13;2.00;;;17.30;99.90;;;;;;5211890;28;20029;-78
2022/10/19 09:35:39;;;;;;;2.03;1.80;;;17.30;99.90;;;;;;5207952;28;20017;-77
2022/10/19 09:38:15;;;;;;;2.53;1.77;;;17.50;99.90;;;;;;5237039;28;20025;-78
2022/10/19 09:40:49;;;;;;;1.98;1.80;;;17.60;99.90;;;;;;5219846;28;20517;-77
2022/10/19 09:43:21;;;;;;;6.00;1.70;;;17.60;99.90;;;;;;5196945;28;20056;-76
2022/10/19 09:45:59;;;;;;;1.63;1.52;;;17.50;99.90;;;;;;5231936;28;20039;-76
2022/10/19 09:48:37;;;;;;;1.92;1.67;;;17.40;99.90;;;;;;5221418;28;20029;-78
2022/10/19 09:51:17;;;;;;;2.00;1.70;;;17.60;99.90;;;;;;5206127;28;20612;-76
2022/10/19 09:53:53;;;;;;;2.35;2.15;;;18.10;99.90;;;;;;5228021;28;20032;-77
2022/10/19 09:56:26;;;;;;;1.92;1.80;;;18.20;99.90;;;;;;5199848;28;20035;-77
2022/10/19 09:58:58;;;;;;;4.10;2.45;;;17.90;99.90;;;;;;5213482;28;20234;-77
2022/10/19 10:01:32;;;;;;;2.78;2.00;;;17.80;99.90;;;;;;5218633;28;20025;-76
2022/10/19 10:04:08;;;;;;;2.10;1.90;;;17.60;99.90;;;;;;5230851;28;20016;-77
2022/10/19 10:06:41;;;;;;;2.35;2.00;;;17.90;99.90;;;;;;5220287;28;20063;-76
2022/10/19 10:09:25;;;;;;;2.13;1.83;;;18.20;99.90;;;;;;5224795;28;20025;-76
2022/10/19 10:12:01;;;;;;;2.47;2.00;;;18.40;99.90;;;;;;5206068;28;20028;-76
2022/10/19 10:14:38;;;;;;;2.13;1.92;;;18.20;99.90;;;;;;5230417;28;20048;-77
2022/10/19 10:17:19;;;;;;;3.22;2.28;;;18.20;99.90;;;;;;5240574;28;20029;-78
2022/10/19 10:19:59;;;;;;;2.25;2.05;;;18.30;99.90;;;;;;5202617;28;20302;-77
2022/10/19 10:22:35;;;;;;;2.45;1.98;;;18.20;99.90;;;;;;5221092;28;20047;-76
2022/10/19 10:25:17;;;;;;;2.28;2.00;;;18.10;99.90;;;;;;5223887;28;20021;-78
2022/10/19 10:28:20;;;;;;;2.45;2.25;;;18.20;99.90;;;;;;5204983;28;20429;-78
2022/10/19 10:31:04;;;;;;;3.08;2.15;;;17.90;99.90;;;;;;5209225;28;20038;-77
2022/10/19 10:33:37;;;;;;;2.40;2.20;;;17.90;99.90;;;;;;5229089;28;20043;-77
2022/10/19 10:36:10;;;;;;;3.38;2.38;;;17.90;99.90;;;;;;5231739;28;20287;-77
2022/10/19 10:38:45;;;;;;;5.75;2.17;;;17.50;99.90;;;;;;5209035;28;20060;-76
2022/10/19 10:41:22;;;;;;;2.42;2.00;;;17.40;99.90;;;;;;5226174;28;20058;-78
2022/10/19 10:44:05;;;;;;;3.83;2.42;;;17.40;99.90;;;;;;5236080;28;20017;-77
2022/10/19 10:46:53;;;;;;;1.88;1.77;;;17.60;99.90;;;;;;5236162;28;20024;-77
2022/10/19 10:49:33;;;;;;;2.72;2.05;;;17.60;99.90;;;;;;5210158;28;20336;-77
2022/10/19 10:52:16;;;;;;;2.22;1.85;;;18.60;99.90;;;;;;5216166;28;20040;-78
2022/10/19 10:55:12;;;;;;;2.30;1.70;;;20.30;99.90;;;;;;5223609;28;20035;-76
2022/10/19 10:57:50;;;;;;;2.65;1.85;;;21.90;99.90;;;;;;5225282;28;20032;-78
2022/10/19 11:00:25;;;;;;;4.63;1.90;;;22.50;99.90;;;;;;5209834;28;20027;-79
2022/10/19 11:03:11;;;;;;;2.22;2.00;;;21.50;99.90;;;;;;5226296;28;20044;-77
2022/10/19 11:05:49;;;;;;;2.03;1.92;;;20.60;99.90;;;;;;5212005;28;20053;-78
2022/10/19 11:08:38;;;;;;;2.38;2.17;;;19.70;99.90;;;;;;5221738;28;20032;-79
2022/10/19 11:11:27;;;;;;;3.05;1.90;;;20.20;99.90;;;;;;5211437;28;20191;-79
2022/10/19 11:14:25;;;;;;;2.67;1.73;;;19.80;99.90;;;;;;5215845;28;20057;-79
2022/10/19 11:17:06;;;;;;;2.25;2.05;;;19.80;99.90;;;;;;5235040;28;20021;-79
2022/10/19 11:19:44;;;;;;;4.35;1.90;;;19.30;99.90;;;;;;5226683;28;20029;-78
2022/10/19 11:22:35;;;;;;;3.17;2.00;;;18.70;99.90;;;;;;5210466;28;20026;-78
2022/10/19 11:25:07;;;;;;;2.38;2.10;;;18.70;99.90;;;;;;5224698;28;20039;-78
2022/10/19 11:27:44;;;;;;;3.15;2.10;;;18.80;99.90;;;;;;5225361;28;20261;-78
2022/10/19 11:30:20;;;;;;;2.75;2.03;;;18.30;99.90;;;;;;5209019;28;20021;-77
2022/10/19 11:33:06;;;;;;;3.10;2.33;;;18.20;99.90;;;;;;5228084;28;20033;-78
2022/10/19 11:35:57;;;;;;;2.90;2.00;;;18.20;99.90;;;;;;5229175;28;20016;-78
2022/10/19 11:38:48;;;;;;;2.15;1.83;;;19.00;99.90;;;;;;5222453;28;20063;-78
2022/10/19 11:41:25;;;;;;;2.60;2.35;;;18.50;99.90;;;;;;5222309;28;20443;-78
2022/10/19 11:44:22;;;;;;;2.40;2.20;;;18.50;99.90;;;;;;5212554;28;20024;-78
2022/10/19 11:47:08;;;;;;;2.60;2.38;;;18.60;99.90;;;;;;5236975;28;20063;-79
2022/10/19 11:50:10;;;;;;;3.10;2.08;;;18.70;99.90;;;;;;5224759;28;20029;-78
2022/10/19 11:52:45;;;;;;;1.70;1.60;;;19.30;99.90;;;;;;5202491;28;20040;-78
2022/10/19 11:55:38;;;;;;;2.15;1.95;;;20.70;99.90;;;;;;5209446;28;20017;-78
2022/10/19 11:58:47;;;;;;;1.88;1.73;;;20.30;99.90;;;;;;5226041;28;20478;-80
2022/10/19 12:01:36;;;;;;;2.38;2.17;;;21.00;99.90;;;;;;5227278;28;20033;-79
2022/10/19 12:04:24;;;;;;;1.88;1.77;;;19.90;99.90;;;;;;5225790;28;20033;-78
2022/10/19 12:07:24;;;;;;;2.15;1.80;;;19.50;99.90;;;;;;5181045;28;20055;-79
2022/10/19 12:10:15;;;;;;;2.15;1.95;;;19.10;99.90;;;;;;5213445;28;20023;-79
2022/10/19 12:13:04;;;;;;;2.00;1.80;;;20.70;99.90;;;;;;5202339;28;20218;-78
2022/10/19 12:15:37;;;;;;;1.70;1.60;;;21.70;99.90;;;;;;5207124;28;20032;-79
2022/10/19 12:18:38;;;;;;;2.05;1.88;;;22.50;99.90;;;;;;5233061;28;20055;-79
2022/10/19 12:21:24;;;;;;;2.00;1.80;;;22.10;99.90;;;;;;5219502;28;20514;-79
2022/10/19 12:23:57;;;;;;;2.20;2.00;;;21.70;99.90;;;;;;5195371;28;20029;-79
2022/10/19 12:26:35;;;;;;;1.90;1.80;;;22.80;99.90;;;;;;5233132;28;20031;-79
2022/10/19 12:29:18;;;;;;;2.30;2.00;;;22.70;99.90;;;;;;5237588;28;20026;-78
2022/10/19 12:31:51;;;;;;;2.08;1.58;;;23.50;99.90;;;;;;5231133;28;20025;-80
2022/10/19 12:34:59;;;;;;;2.47;1.98;;;23.90;99.90;;;;;;5229826;28;20021;-80
2022/10/19 12:37:41;;;;;;;2.15;1.95;;;23.80;99.90;;;;;;5214698;28;20037;-78
2022/10/19 12:40:40;;;;;;;3.55;2.10;;;22.80;99.90;;;;;;5207274;28;20025;-80
2022/10/19 12:43:26;;;;;;;2.00;1.90;;;20.50;99.90;;;;;;5221651;28;20017;-78
2022/10/19 12:46:27;;;;;;;1.90;1.73;;;20.40;99.90;;;;;;5218079;28;20068;-79
2022/10/19 12:49:30;;;;;;;2.35;2.15;;;20.50;99.90;;;;;;5202626;28;20036;-79
2022/10/19 12:52:06;;;;;;;4.68;2.30;;;19.70;99.90;;;;;;5202980;28;20036;-77
2022/10/19 12:54:40;;;;;;;1.85;1.70;;;21.30;99.90;;;;;;5213188;28;20033;-77
2022/10/19 12:57:27;;;;;;;2.15;1.95;;;21.20;99.90;;;;;;5207995;28;20029;-77
2022/10/19 13:00:21;;;;;;;6.53;2.00;;;21.30;99.90;;;;;;5213661;28;20032;-78
2022/10/19 13:03:07;;;;;;;2.20;1.73;;;21.90;99.90;;;;;;5220042;28;20036;-78
2022/10/19 13:05:38;;;;;;;2.42;2.08;;;21.80;99.90;;;;;;5211510;28;20495;-78
2022/10/19 13:08:31;;;;;;;1.90;1.80;;;21.70;99.90;;;;;;5206373;28;20037;-79
2022/10/19 13:11:14;;;;;;;5.05;2.00;;;22.20;99.90;;;;;;5204711;28;20019;-77
2022/10/19 13:13:54;;;;;;;2.17;1.98;;;22.80;99.90;;;;;;5211306;28;20489;-80
2022/10/19 13:16:28;;;;;;;2.40;2.03;;;22.70;99.90;;;;;;5224446;28;20510;-78
2022/10/19 13:19:11;;;;;;;1.88;1.75;;;22.00;99.90;;;;;;5219331;28;20472;-79
2022/10/19 13:21:53;;;;;;;3.80;2.00;;;21.70;99.90;;;;;;5203355;28;20035;-78
2022/10/19 13:24:26;;;;;;;2.25;2.05;;;22.00;99.90;;;;;;5204480;28;20044;-79
2022/10/19 13:27:05;;;;;;;4.40;2.10;;;22.10;99.90;;;;;;5217602;28;20070;-80
2022/10/19 13:29:40;;;;;;;4.70;2.40;;;21.90;99.90;;;;;;5214721;28;20033;-77
2022/10/19 13:32:33;;;;;;;4.07;3.00;;;22.40;99.90;;;;;;5235163;28;20186;-81
2022/10/19 13:35:34;;;;;;;3.00;2.70;;;23.20;99.90;;;;;;5213519;28;20031;-80
2022/10/19 13:38:09;;;;;;;3.58;2.45;;;22.80;99.90;;;;;;5224534;28;20054;-79
2022/10/19 13:40:51;;;;;;;3.28;2.97;;;22.00;99.90;;;;;;5227314;28;20021;-80
2022/10/19 13:43:44;;;;;;;4.53;3.70;;;21.40;99.90;;;;;;5209767;28;20042;-79
2022/10/19 13:46:27;;;;;;;4.43;2.47;;;21.10;99.90;;;;;;5221151;28;20033;-80